createdAt,value
2017-07-11T00:01:49.415Z,21.10
2017-07-11T00:04:16.837Z,20.90
2017-07-11T00:06:44.276Z,20.60
2017-07-11T00:09:12.460Z,20.10
2017-07-11T00:11:39.897Z,20.10
2017-07-11T00:14:07.325Z,19.80
2017-07-11T00:16:34.746Z,19.50
2017-07-11T00:19:02.179Z,19.40
2017-07-11T00:21:29.595Z,19.20
2017-07-11T00:23:57.032Z,19.10
2017-07-11T00:26:24.449Z,19.00
2017-07-11T00:28:51.880Z,19.00
2017-07-11T00:31:19.325Z,18.90
2017-07-11T00:33:46.763Z,18.90
2017-07-11T00:36:14.180Z,18.90
2017-07-11T00:38:41.628Z,18.90
2017-07-11T00:41:09.041Z,18.90
2017-07-11T00:43:36.465Z,18.90
2017-07-11T00:46:03.905Z,18.80
2017-07-11T00:48:31.320Z,18.80
2017-07-11T00:50:59.533Z,18.80
2017-07-11T00:53:26.945Z,18.80
2017-07-11T00:55:54.383Z,18.80
2017-07-11T00:58:21.797Z,18.80
2017-07-11T01:00:49.224Z,18.80
2017-07-11T01:03:17.417Z,18.80
2017-07-11T01:05:44.853Z,18.80
2017-07-11T01:08:12.291Z,18.80
2017-07-11T01:10:39.708Z,18.80
2017-07-11T01:13:07.119Z,18.80
2017-07-11T01:15:35.329Z,18.90
2017-07-11T01:18:02.745Z,18.90
2017-07-11T01:20:30.184Z,18.90
2017-07-11T01:22:57.599Z,18.90
2017-07-11T01:25:25.161Z,18.80
2017-07-11T01:27:52.596Z,18.80
2017-07-11T01:30:20.008Z,18.80
2017-07-11T01:32:47.444Z,18.80
2017-07-11T01:35:14.880Z,18.80
2017-07-11T01:37:42.296Z,18.90
2017-07-11T01:40:10.493Z,18.90
2017-07-11T01:42:37.921Z,18.90
2017-07-11T01:45:05.341Z,18.90
2017-07-11T01:47:32.777Z,18.90
2017-07-11T01:50:00.336Z,19.00
2017-07-11T01:52:27.768Z,18.90
2017-07-11T01:54:55.184Z,18.90
2017-07-11T01:57:22.619Z,18.80
2017-07-11T01:59:50.248Z,18.80
2017-07-11T02:02:17.709Z,18.90
2017-07-11T02:04:45.133Z,18.90
2017-07-11T02:07:12.563Z,18.80
2017-07-11T02:09:39.984Z,18.80
2017-07-11T02:12:07.449Z,18.80
2017-07-11T02:14:34.892Z,18.70
2017-07-11T02:17:02.313Z,18.70
2017-07-11T02:19:29.804Z,18.70
2017-07-11T02:21:57.244Z,18.70
2017-07-11T02:24:24.676Z,18.70
2017-07-11T02:26:52.100Z,18.70
2017-07-11T02:29:19.532Z,18.80
2017-07-11T02:31:46.947Z,18.70
2017-07-11T02:34:15.176Z,18.70
2017-07-11T02:36:42.600Z,18.70
2017-07-11T02:39:10.033Z,18.70
2017-07-11T02:41:37.448Z,18.70
2017-07-11T02:44:04.884Z,18.70
2017-07-11T02:46:32.303Z,18.70
2017-07-11T02:48:59.741Z,18.70
2017-07-11T02:51:27.920Z,18.60
2017-07-11T02:53:55.341Z,18.60
2017-07-11T02:56:22.776Z,18.60
2017-07-11T02:58:50.201Z,18.60
2017-07-11T03:01:17.633Z,18.70
2017-07-11T03:03:45.048Z,18.70
2017-07-11T03:06:12.483Z,18.70
2017-07-11T03:08:40.068Z,18.70
2017-07-11T03:11:07.505Z,18.70
2017-07-11T03:13:34.925Z,18.70
2017-07-11T03:16:03.115Z,18.80
2017-07-11T03:18:30.556Z,18.70
2017-07-11T03:20:58.001Z,18.80
2017-07-11T03:23:25.416Z,18.80
2017-07-11T03:25:52.850Z,18.80
2017-07-11T03:28:20.290Z,18.80
2017-07-11T03:30:47.704Z,18.80
2017-07-11T03:33:15.133Z,18.80
2017-07-11T03:35:42.658Z,18.80
2017-07-11T03:38:10.088Z,18.80
2017-07-11T03:40:37.505Z,18.70
2017-07-11T03:43:05.164Z,18.70
2017-07-11T03:45:32.585Z,18.70
2017-07-11T03:48:00.024Z,18.70
2017-07-11T03:50:27.453Z,18.70
2017-07-11T03:52:54.878Z,18.70
2017-07-11T03:55:22.307Z,18.80
2017-07-11T03:57:49.743Z,18.80
2017-07-11T04:00:17.920Z,18.80
2017-07-11T04:02:45.430Z,18.80
2017-07-11T04:05:12.845Z,18.80
2017-07-11T04:07:40.284Z,18.80
2017-07-11T04:10:07.700Z,18.90
2017-07-11T04:12:35.132Z,18.90
2017-07-11T04:15:02.588Z,18.90
2017-07-11T04:17:30.003Z,18.90
2017-07-11T04:19:58.204Z,19.00
2017-07-11T04:22:25.618Z,19.00
2017-07-11T04:24:53.053Z,19.00
2017-07-11T04:27:20.474Z,19.00
2017-07-11T04:29:47.905Z,19.00
2017-07-11T04:32:16.094Z,19.00
2017-07-11T04:34:43.524Z,18.90
2017-07-11T04:37:10.944Z,18.90
2017-07-11T04:39:38.356Z,19.00
2017-07-11T04:42:05.796Z,19.00
2017-07-11T04:44:33.991Z,19.00
2017-07-11T04:47:01.420Z,19.00
2017-07-11T04:49:28.840Z,19.00
2017-07-11T04:51:56.286Z,19.00
2017-07-11T04:54:23.701Z,19.00
2017-07-11T04:56:51.901Z,19.00
2017-07-11T04:59:19.316Z,18.90
2017-07-11T05:01:46.754Z,19.00
2017-07-11T05:04:14.168Z,19.00
2017-07-11T05:06:41.619Z,19.00
2017-07-11T05:09:09.099Z,19.00
2017-07-11T05:11:36.613Z,19.10
2017-07-11T05:14:04.032Z,19.10
2017-07-11T05:16:31.459Z,19.10
2017-07-11T05:18:58.916Z,19.10
2017-07-11T05:21:26.336Z,19.10
2017-07-11T05:23:54.524Z,19.00
2017-07-11T05:26:21.947Z,19.00
2017-07-11T05:28:50.340Z,19.00
2017-07-11T05:31:17.763Z,18.90
2017-07-11T05:33:45.193Z,18.90
2017-07-11T05:36:12.616Z,18.90
2017-07-11T05:38:40.946Z,18.90
2017-07-11T05:41:08.368Z,18.90
2017-07-11T05:43:35.781Z,18.90
2017-07-11T05:46:03.380Z,18.90
2017-07-11T05:48:30.805Z,18.90
2017-07-11T05:50:58.996Z,19.10
2017-07-11T05:53:26.430Z,19.10
2017-07-11T05:55:53.899Z,19.10
2017-07-11T05:58:21.312Z,19.20
2017-07-11T06:00:48.748Z,19.20
2017-07-11T06:03:16.173Z,19.20
2017-07-11T06:05:43.604Z,19.30
2017-07-11T06:08:11.798Z,19.30
2017-07-11T06:10:39.229Z,19.30
2017-07-11T06:13:06.648Z,19.40
2017-07-11T06:15:34.091Z,19.40
2017-07-11T06:18:01.513Z,19.50
2017-07-11T06:20:29.722Z,19.50
2017-07-11T06:22:57.140Z,19.50
2017-07-11T06:25:24.581Z,19.50
2017-07-11T06:27:52.009Z,19.60
2017-07-11T06:30:19.429Z,19.60
2017-07-11T06:32:46.865Z,19.60
2017-07-11T06:35:15.048Z,19.60
2017-07-11T06:37:42.844Z,19.60
2017-07-11T06:40:10.269Z,19.60
2017-07-11T06:42:37.688Z,19.60
2017-07-11T06:45:05.129Z,19.60
2017-07-11T06:47:32.573Z,19.60
2017-07-11T06:49:59.987Z,19.60
2017-07-11T06:52:27.426Z,19.60
2017-07-11T06:54:55.610Z,19.60
2017-07-11T06:57:23.041Z,19.60
2017-07-11T06:59:50.456Z,19.60
2017-07-11T07:02:17.897Z,19.60
2017-07-11T07:04:45.316Z,19.60
2017-07-11T07:07:13.516Z,19.60
2017-07-11T07:09:41.004Z,19.60
2017-07-11T07:12:08.429Z,19.70
2017-07-11T07:14:35.864Z,19.70
2017-07-11T07:17:03.275Z,19.70
2017-07-11T07:19:30.711Z,19.80
2017-07-11T07:21:58.128Z,19.90
2017-07-11T07:24:26.333Z,20.00
2017-07-11T07:26:53.765Z,20.00
2017-07-11T07:29:21.184Z,20.00
2017-07-11T07:31:48.612Z,20.10
2017-07-11T07:34:16.044Z,20.10
2017-07-11T07:36:43.465Z,20.10
2017-07-11T07:39:10.901Z,20.10
2017-07-11T07:41:38.324Z,20.10
2017-07-11T07:44:05.749Z,20.10
2017-07-11T07:46:33.183Z,20.10
2017-07-11T07:49:00.629Z,20.20
2017-07-11T07:51:28.062Z,20.20
2017-07-11T07:53:55.474Z,20.20
2017-07-11T07:56:22.916Z,20.30
2017-07-11T07:58:50.325Z,20.30
2017-07-11T08:01:17.766Z,20.40
2017-07-11T08:03:45.213Z,20.40
2017-07-11T08:06:13.401Z,20.50
2017-07-11T08:08:40.817Z,20.50
2017-07-11T08:11:08.344Z,20.50
2017-07-11T08:13:35.753Z,20.60
2017-07-11T08:16:03.185Z,20.60
2017-07-11T08:18:30.608Z,20.70
2017-07-11T08:20:58.053Z,20.80
2017-07-11T08:23:25.472Z,20.90
2017-07-11T08:25:52.919Z,20.90
2017-07-11T08:28:21.109Z,20.90
2017-07-11T08:30:48.533Z,20.90
2017-07-11T08:35:49.789Z,21.10
2017-07-11T08:38:17.228Z,21.20
2017-07-11T08:40:44.653Z,21.30
2017-07-11T08:43:12.324Z,21.30
2017-07-11T08:45:39.757Z,21.40
2017-07-11T08:48:07.194Z,21.40
2017-07-11T08:50:34.617Z,21.40
2017-07-11T08:53:02.057Z,21.40
2017-07-11T08:55:29.475Z,21.40
2017-07-11T08:57:56.912Z,21.50
2017-07-11T09:00:25.097Z,21.70
2017-07-11T09:02:53.529Z,21.70
2017-07-11T09:05:20.955Z,21.80
2017-07-11T09:07:48.425Z,21.90
2017-07-11T09:10:16.139Z,21.90
2017-07-11T09:12:43.571Z,22.00
2017-07-11T09:15:10.997Z,22.10
2017-07-11T09:17:38.413Z,22.10
2017-07-11T09:20:05.925Z,22.20
2017-07-11T09:22:33.347Z,22.20
2017-07-11T09:25:00.791Z,22.30
2017-07-11T09:27:28.220Z,22.40
2017-07-11T09:29:56.462Z,22.40
2017-07-11T09:32:23.883Z,22.40
2017-07-11T09:34:51.316Z,22.40
2017-07-11T09:37:18.732Z,22.40
2017-07-11T09:39:46.193Z,22.40
2017-07-11T09:42:13.633Z,22.60
2017-07-11T09:44:41.078Z,22.50
2017-07-11T09:47:08.504Z,22.50
2017-07-11T09:49:36.105Z,22.40
2017-07-11T09:52:03.951Z,22.30
2017-07-11T09:54:31.363Z,22.40
2017-07-11T09:56:58.796Z,22.40
2017-07-11T09:59:26.216Z,22.50
2017-07-11T10:01:53.653Z,22.50
2017-07-11T10:04:21.078Z,22.50
2017-07-11T10:06:48.508Z,22.50
2017-07-11T10:09:15.934Z,22.50
2017-07-11T10:11:43.368Z,22.60
2017-07-11T10:14:11.585Z,22.70
2017-07-11T10:16:39.012Z,22.70
2017-07-11T10:19:06.434Z,22.80
2017-07-11T10:21:33.856Z,22.90
2017-07-11T10:24:01.284Z,23.00
2017-07-11T10:26:28.700Z,23.00
2017-07-11T10:28:56.913Z,23.20
2017-07-11T10:31:24.328Z,23.20
2017-07-11T10:33:52.170Z,23.30
2017-07-11T10:36:19.589Z,23.30
2017-07-11T10:38:47.014Z,23.20
2017-07-11T10:41:14.447Z,23.10
2017-07-11T10:43:41.889Z,23.10
2017-07-11T10:46:09.309Z,23.00
2017-07-11T10:48:37.201Z,22.90
2017-07-11T10:51:04.616Z,22.80
2017-07-11T10:53:32.112Z,22.80
2017-07-11T10:55:59.548Z,22.80
2017-07-11T10:58:26.988Z,22.90
2017-07-11T11:00:54.413Z,22.90
2017-07-11T11:03:21.844Z,23.00
2017-07-11T11:05:49.283Z,23.00
2017-07-11T11:08:16.702Z,23.00
2017-07-11T11:10:44.902Z,23.30
2017-07-11T11:13:12.325Z,23.20
2017-07-11T11:15:39.979Z,23.40
2017-07-11T11:18:08.789Z,23.70
2017-07-11T11:20:36.217Z,23.70
2017-07-11T11:23:03.631Z,23.90
2017-07-11T11:25:31.108Z,23.90
2017-07-11T11:27:58.529Z,24.00
2017-07-11T11:30:26.101Z,23.90
2017-07-11T11:32:53.524Z,23.80
2017-07-11T11:35:20.976Z,23.80
2017-07-11T11:37:48.389Z,23.70
2017-07-11T11:40:15.825Z,23.70
2017-07-11T11:42:43.238Z,23.60
2017-07-11T11:45:11.428Z,23.40
2017-07-11T11:47:39.217Z,23.40
2017-07-11T11:50:06.632Z,23.40
2017-07-11T11:52:34.048Z,23.40
2017-07-11T11:55:01.479Z,23.30
2017-07-11T11:57:28.916Z,23.30
2017-07-11T12:02:30.168Z,23.10
2017-07-11T12:04:57.592Z,22.90
2017-07-11T12:07:25.032Z,22.70
2017-07-11T12:09:52.449Z,22.60
2017-07-11T12:12:19.877Z,22.40
2017-07-11T12:14:47.296Z,22.30
2017-07-11T12:17:14.728Z,22.20
2017-07-11T12:19:42.152Z,22.20
2017-07-11T12:22:09.595Z,22.30
2017-07-11T12:24:37.785Z,22.70
2017-07-11T12:27:05.220Z,22.70
2017-07-11T12:29:32.644Z,23.00
2017-07-11T12:32:00.072Z,23.20
2017-07-11T12:34:27.498Z,23.40
2017-07-11T12:36:55.705Z,23.70
2017-07-11T12:39:23.124Z,23.70
2017-07-11T12:41:50.532Z,23.80
2017-07-11T12:44:17.971Z,24.10
2017-07-11T12:46:45.383Z,24.30
2017-07-11T12:49:13.634Z,24.80
2017-07-11T12:51:40.999Z,24.80
2017-07-11T12:54:08.437Z,25.00
2017-07-11T12:56:35.863Z,25.50
2017-07-11T12:59:03.296Z,26.10
2017-07-11T13:01:30.717Z,26.50
2017-07-11T13:03:58.148Z,26.90
2017-07-11T13:06:25.566Z,27.30
2017-07-11T13:08:53.002Z,27.70
2017-07-11T13:11:20.426Z,28.10
2017-07-11T13:13:47.861Z,28.20
2017-07-11T13:16:15.288Z,28.20
2017-07-11T13:18:42.692Z,28.60
2017-07-11T13:21:10.176Z,28.90
2017-07-11T13:23:37.583Z,29.80
2017-07-11T13:26:05.038Z,30.50
2017-07-11T13:28:32.433Z,30.30
2017-07-11T13:30:59.867Z,29.90
2017-07-11T13:33:27.280Z,29.50
2017-07-11T13:35:54.873Z,28.80
2017-07-11T13:38:22.296Z,28.30
2017-07-11T13:40:49.753Z,28.10
2017-07-11T13:43:17.180Z,27.90
2017-07-11T13:45:45.449Z,27.40
2017-07-11T13:48:12.850Z,27.40
2017-07-11T13:50:40.286Z,27.40
2017-07-11T13:53:07.705Z,27.60
2017-07-11T13:55:35.137Z,27.60
2017-07-11T13:58:02.557Z,27.50
2017-07-11T14:00:29.992Z,27.30
2017-07-11T14:02:58.168Z,27.00
2017-07-11T14:05:25.603Z,27.00
2017-07-11T14:07:53.020Z,26.90
2017-07-11T14:10:20.447Z,26.50
2017-07-11T14:12:47.869Z,26.20
2017-07-11T14:15:15.288Z,26.10
2017-07-11T14:17:42.725Z,25.90
2017-07-11T14:20:10.147Z,25.70
2017-07-11T14:22:37.580Z,25.50
2017-07-11T14:25:05.004Z,25.20
2017-07-11T14:27:32.441Z,25.00
2017-07-11T14:29:59.856Z,24.90
2017-07-11T14:32:27.293Z,24.80
2017-07-11T14:34:54.717Z,24.80
2017-07-11T14:37:22.145Z,24.70
2017-07-11T14:39:50.332Z,24.40
2017-07-11T14:42:17.773Z,24.40
2017-07-11T14:44:45.193Z,24.50
2017-07-11T14:47:12.666Z,24.60
2017-07-11T14:49:40.104Z,24.60
2017-07-11T14:52:07.639Z,24.50
2017-07-11T14:54:35.065Z,24.50
2017-07-11T14:57:02.493Z,24.60
2017-07-11T14:59:29.932Z,24.80
2017-07-11T15:01:57.349Z,24.90
2017-07-11T15:04:24.781Z,25.10
2017-07-11T15:06:52.217Z,26.20
2017-07-11T15:09:19.670Z,27.50
2017-07-11T15:11:47.212Z,28.70
2017-07-11T15:14:14.676Z,29.90
2017-07-11T15:16:42.114Z,30.60
2017-07-11T15:19:09.554Z,30.90
2017-07-11T15:21:37.042Z,31.10
2017-07-11T15:24:04.472Z,30.90
2017-07-11T15:26:31.894Z,30.60
2017-07-11T15:28:59.329Z,29.80
2017-07-11T15:31:27.518Z,28.50
2017-07-11T15:33:54.988Z,28.50
2017-07-11T15:36:22.403Z,28.30
2017-07-11T15:38:49.840Z,28.10
2017-07-11T15:41:17.250Z,27.90
2017-07-11T15:43:44.677Z,27.90
2017-07-11T15:46:12.113Z,27.60
2017-07-11T15:48:39.657Z,27.20
2017-07-11T15:51:07.093Z,26.90
2017-07-11T15:53:34.516Z,26.50
2017-07-11T15:56:02.728Z,26.20
2017-07-11T15:58:30.145Z,26.20
2017-07-11T16:00:57.599Z,26.20
2017-07-11T16:03:25.489Z,26.00
2017-07-11T16:05:52.922Z,25.80
2017-07-11T16:08:20.341Z,25.80
2017-07-11T16:10:47.772Z,25.60
2017-07-11T16:13:15.189Z,25.50
2017-07-11T16:15:42.621Z,25.40
2017-07-11T16:18:10.046Z,25.50
2017-07-11T16:20:37.461Z,25.40
2017-07-11T16:23:04.891Z,25.40
2017-07-11T16:25:32.320Z,25.40
2017-07-11T16:27:59.748Z,25.40
2017-07-11T16:30:27.173Z,25.40
2017-07-11T16:32:54.601Z,25.40
2017-07-11T16:35:22.028Z,25.30
2017-07-11T16:37:49.465Z,25.20
2017-07-11T16:40:16.888Z,25.00
2017-07-11T16:42:44.321Z,24.90
2017-07-11T16:45:11.742Z,24.80
2017-07-11T16:47:39.184Z,24.50
2017-07-11T16:50:06.605Z,23.80
2017-07-11T16:52:34.057Z,23.00
2017-07-11T16:55:01.452Z,22.30
2017-07-11T16:57:28.889Z,21.90
2017-07-11T16:59:56.304Z,21.70
2017-07-11T17:02:23.739Z,21.60
2017-07-11T17:04:51.157Z,21.70
2017-07-11T17:07:18.576Z,21.70
2017-07-11T17:09:46.013Z,21.70
2017-07-11T17:12:13.433Z,21.80
2017-07-11T17:14:40.865Z,21.80
2017-07-11T17:17:09.043Z,21.90
2017-07-11T17:19:36.545Z,21.90
2017-07-11T17:22:03.968Z,22.00
2017-07-11T17:24:31.396Z,22.00
2017-07-11T17:26:58.812Z,22.00
2017-07-11T17:29:26.259Z,22.10
2017-07-11T17:31:53.674Z,22.00
2017-07-11T17:34:21.876Z,22.00
2017-07-11T17:36:49.301Z,22.00
2017-07-11T17:39:16.741Z,22.00
2017-07-11T17:41:44.160Z,22.10
2017-07-11T17:44:11.592Z,22.10
2017-07-11T17:46:39.008Z,22.20
2017-07-11T17:49:06.428Z,22.20
2017-07-11T17:51:33.979Z,22.20
2017-07-11T17:54:01.400Z,22.20
2017-07-11T17:56:29.600Z,22.20
2017-07-11T17:58:57.022Z,22.10
2017-07-11T18:01:24.456Z,22.10
2017-07-11T18:03:51.873Z,22.10
2017-07-11T18:06:19.341Z,22.00
2017-07-11T18:08:46.898Z,22.00
2017-07-11T18:11:14.345Z,22.10
2017-07-11T18:13:41.755Z,22.10
2017-07-11T18:16:09.197Z,22.00
2017-07-11T18:18:36.622Z,22.00
2017-07-11T18:21:04.053Z,22.10
2017-07-11T18:23:31.483Z,22.00
2017-07-11T18:25:59.668Z,21.90
2017-07-11T18:28:27.110Z,21.90
2017-07-11T18:30:54.529Z,21.90
2017-07-11T18:33:21.972Z,21.90
2017-07-11T18:35:49.387Z,21.90
2017-07-11T18:38:17.907Z,21.90
2017-07-11T18:40:45.331Z,21.90
2017-07-11T18:43:12.751Z,21.90
2017-07-11T18:45:40.187Z,21.90
2017-07-11T18:48:07.621Z,21.90
2017-07-11T18:50:35.071Z,21.90
2017-07-11T18:53:02.489Z,21.90
2017-07-11T18:55:30.676Z,21.80
2017-07-11T18:57:58.118Z,21.80
2017-07-11T19:00:25.536Z,21.70
2017-07-11T19:02:52.973Z,21.70
2017-07-11T19:05:20.393Z,21.60
2017-07-11T19:07:48.601Z,21.50
2017-07-11T19:10:16.016Z,21.50
2017-07-11T19:12:43.428Z,21.50
2017-07-11T19:15:10.897Z,21.40
2017-07-11T19:17:38.437Z,21.40
2017-07-11T19:20:05.872Z,21.40
2017-07-11T19:22:33.292Z,21.40
2017-07-11T19:25:00.719Z,21.40
2017-07-11T19:27:28.156Z,21.30
2017-07-11T19:29:55.592Z,21.30
2017-07-11T19:32:23.013Z,21.20
2017-07-11T19:34:51.213Z,21.10
2017-07-11T19:37:18.628Z,21.10
2017-07-11T19:39:46.060Z,21.10
2017-07-11T19:42:13.484Z,21.10
2017-07-11T19:44:40.921Z,21.10
2017-07-11T19:47:09.104Z,21.00
2017-07-11T19:49:36.532Z,21.00
2017-07-11T19:52:03.952Z,21.00
2017-07-11T19:54:31.388Z,21.10
2017-07-11T19:56:58.821Z,21.10
2017-07-11T19:59:27.032Z,21.10
2017-07-11T20:01:54.466Z,21.10
2017-07-11T20:04:21.893Z,21.20
2017-07-11T20:06:49.328Z,21.20
2017-07-11T20:09:16.740Z,21.20
2017-07-11T20:11:44.168Z,21.10
2017-07-11T20:14:12.356Z,21.00
2017-07-11T20:16:39.788Z,20.90
2017-07-11T20:19:07.205Z,20.90
2017-07-11T20:21:34.643Z,20.90
2017-07-11T20:24:02.065Z,20.90
2017-07-11T20:26:30.275Z,20.90
2017-07-11T20:28:57.694Z,20.90
2017-07-11T20:31:25.117Z,20.90
2017-07-11T20:33:52.547Z,20.80
2017-07-11T20:36:19.970Z,20.80
2017-07-11T20:38:48.170Z,20.70
2017-07-11T20:41:15.593Z,20.70
2017-07-11T20:43:43.020Z,20.60
2017-07-11T20:46:10.444Z,20.60
2017-07-11T20:48:37.884Z,20.50
2017-07-11T20:51:05.302Z,20.60
2017-07-11T20:53:33.504Z,20.50
2017-07-11T20:56:00.928Z,20.50
2017-07-11T20:58:28.356Z,20.50
2017-07-11T21:00:55.778Z,20.50
2017-07-11T21:03:23.406Z,20.50
2017-07-11T21:05:50.984Z,20.50
2017-07-11T21:08:18.408Z,20.50
2017-07-11T21:10:45.928Z,20.40
2017-07-11T21:13:13.365Z,20.40
2017-07-11T21:15:40.785Z,20.30
2017-07-11T21:18:08.963Z,20.20
2017-07-11T21:20:36.401Z,20.20
2017-07-11T21:23:03.824Z,20.10
2017-07-11T21:25:31.252Z,20.10
2017-07-11T21:27:58.673Z,20.10
2017-07-11T21:30:26.104Z,20.10
2017-07-11T21:32:53.534Z,20.10
2017-07-11T21:35:20.976Z,20.00
2017-07-11T21:37:48.401Z,20.00
2017-07-11T21:40:15.846Z,19.90
2017-07-11T21:42:43.262Z,19.90
2017-07-11T21:45:10.695Z,19.90
2017-07-11T21:47:38.126Z,19.90
2017-07-11T21:50:05.569Z,19.90
2017-07-11T21:52:32.989Z,19.90
2017-07-11T21:55:00.428Z,19.80
2017-07-11T21:57:27.853Z,19.80
2017-07-11T21:59:56.056Z,19.70
2017-07-11T22:02:23.481Z,19.70
2017-07-11T22:04:50.904Z,19.70
2017-07-11T22:07:18.337Z,19.70
2017-07-11T22:09:45.764Z,19.70
2017-07-11T22:12:13.196Z,19.70
2017-07-11T22:14:41.396Z,19.70
2017-07-11T22:17:08.823Z,19.70
2017-07-11T22:19:36.254Z,19.70
2017-07-11T22:22:03.712Z,19.60
2017-07-11T22:24:31.937Z,19.60
2017-07-11T22:26:59.629Z,19.60
2017-07-11T22:29:27.070Z,19.50
2017-07-11T22:31:54.486Z,19.50
2017-07-11T22:34:21.906Z,19.50
2017-07-11T22:36:49.756Z,19.40
2017-07-11T22:39:17.177Z,19.40
2017-07-11T22:41:44.597Z,19.40
2017-07-11T22:44:12.432Z,19.40
2017-07-11T22:46:39.847Z,19.40
2017-07-11T22:49:07.268Z,19.30
2017-07-11T22:51:34.709Z,19.30
2017-07-11T22:54:02.141Z,19.30
2017-07-11T22:56:29.567Z,19.30
2017-07-11T22:58:57.765Z,19.20
2017-07-11T23:01:25.188Z,19.20
2017-07-11T23:03:52.638Z,19.20
2017-07-11T23:06:20.041Z,19.20
2017-07-11T23:08:47.481Z,19.20
2017-07-11T23:11:14.902Z,19.10
2017-07-11T23:13:42.356Z,19.10
2017-07-11T23:16:09.757Z,19.00
2017-07-11T23:18:37.180Z,19.10
2017-07-11T23:21:04.604Z,19.00
2017-07-11T23:23:32.043Z,19.00
2017-07-11T23:25:59.467Z,18.90
2017-07-11T23:28:26.888Z,18.90
2017-07-11T23:30:54.332Z,18.90
2017-07-11T23:33:21.750Z,18.80
2017-07-11T23:35:49.192Z,18.80
2017-07-11T23:38:16.622Z,18.80
2017-07-11T23:40:44.821Z,18.80
2017-07-11T23:43:12.246Z,18.80
2017-07-11T23:45:39.705Z,18.80
2017-07-11T23:48:07.105Z,18.80
2017-07-11T23:50:34.542Z,18.70
2017-07-11T23:53:01.980Z,18.70
2017-07-11T23:55:30.185Z,18.70
2017-07-11T23:57:57.614Z,18.70
